Time,TemperatureF,DewpointF,PressureIn,WindDirection,WindDirectionDegrees,WindSpeedMPH,WindSpeedGustMPH,Humidity,HourlyPrecipIn,Conditions,Clouds,dailyrainin,SolarRadiationWatts/m^2,SoftwareType,DateUTC
2013-05-30 00:00:00,68.0,63.0,-100.00,SE,135,2.0,-999.0,84,-99.99,,,-99.99,0.000000,,2013-05-30 04:00:00,
2013-05-30 00:33:00,68.0,63.0,-100.00,SE,135,2.0,-999.0,84,-99.99,,,-99.99,0.000000,,2013-05-30 04:33:00,
2013-05-30 00:42:00,68.0,63.0,-100.00,SE,135,2.0,-999.0,84,-99.99,,,-99.99,0.000000,,2013-05-30 04:42:00,
2013-05-30 00:53:00,68.0,63.0,-100.00,SE,135,2.0,-999.0,84,-99.99,,,-99.99,0.000000,,2013-05-30 04:53:00,
2013-05-30 01:00:00,67.0,63.0,-100.00,SSE,157,1.0,-999.0,86,-99.99,,,-99.99,0.000000,,2013-05-30 05:00:00,
2013-05-30 01:32:00,67.0,63.0,-100.00,SSE,157,1.0,-999.0,86,-99.99,,,-99.99,0.000000,,2013-05-30 05:32:00,
2013-05-30 01:43:00,67.0,63.0,-100.00,SSE,157,1.0,-999.0,86,-99.99,,,-99.99,0.000000,,2013-05-30 05:43:00,
2013-05-30 01:52:00,67.0,63.0,-100.00,SSE,157,1.0,-999.0,86,-99.99,,,-99.99,0.000000,,2013-05-30 05:52:00,
2013-05-30 02:00:00,68.0,63.0,-100.00,SSW,202,1.0,-999.0,85,-99.99,,,-99.99,0.000000,,2013-05-30 06:00:00,
2013-05-30 02:32:00,68.0,63.0,-100.00,SSW,202,1.0,-999.0,85,-99.99,,,-99.99,0.000000,,2013-05-30 06:32:00,
2013-05-30 02:42:00,68.0,63.0,-100.00,SSW,202,1.0,-999.0,85,-99.99,,,-99.99,0.000000,,2013-05-30 06:42:00,
2013-05-30 02:52:00,68.0,63.0,-100.00,SSW,202,1.0,-999.0,85,-99.99,,,-99.99,0.000000,,2013-05-30 06:52:00,
2013-05-30 03:00:00,67.0,62.0,-100.00,South,180,1.0,-999.0,85,-99.99,,,-99.99,0.000000,,2013-05-30 07:00:00,
2013-05-30 03:32:00,67.0,62.0,-100.00,South,180,1.0,-999.0,85,-99.99,,,-99.99,0.000000,,2013-05-30 07:32:00,
2013-05-30 03:42:00,67.0,62.0,-100.00,South,180,1.0,-999.0,85,-99.99,,,-99.99,0.000000,,2013-05-30 07:42:00,
2013-05-30 03:52:00,67.0,62.0,-100.00,South,180,1.0,-999.0,85,-99.99,,,-99.99,0.000000,,2013-05-30 07:52:00,
2013-05-30 04:00:00,67.0,61.0,-100.00,South,180,1.0,-999.0,81,-99.99,,,-99.99,0.000000,,2013-05-30 08:00:00,
2013-05-30 04:32:00,67.0,61.0,-100.00,South,180,1.0,-999.0,81,-99.99,,,-99.99,0.000000,,2013-05-30 08:32:00,
2013-05-30 04:42:00,67.0,61.0,-100.00,South,180,1.0,-999.0,81,-99.99,,,-99.99,0.000000,,2013-05-30 08:42:00,
2013-05-30 04:53:00,67.0,61.0,-100.00,South,180,1.0,-999.0,81,-99.99,,,-99.99,0.000000,,2013-05-30 08:53:00,
2013-05-30 05:00:00,66.0,60.0,-100.00,South,180,1.0,-999.0,80,-99.99,,,-99.99,0.000000,,2013-05-30 09:00:00,
2013-05-30 05:33:00,66.0,60.0,-100.00,South,180,1.0,-999.0,80,-99.99,,,-99.99,0.000000,,2013-05-30 09:33:00,
2013-05-30 05:43:00,66.0,60.0,-100.00,South,180,1.0,-999.0,80,-99.99,,,-99.99,0.000000,,2013-05-30 09:43:00,
2013-05-30 05:53:00,66.0,60.0,-100.00,South,180,1.0,-999.0,80,-99.99,,,-99.99,0.000000,,2013-05-30 09:53:00,
2013-05-30 06:00:00,66.0,59.0,-100.00,SSE,157,1.0,-999.0,79,-99.99,,,-99.99,0.000000,,2013-05-30 10:00:00,
2013-05-30 06:33:00,66.0,59.0,-100.00,SSE,157,1.0,-999.0,79,-99.99,,,-99.99,0.000000,,2013-05-30 10:33:00,
2013-05-30 06:42:00,66.0,59.0,-100.00,SSE,157,1.0,-999.0,79,-99.99,,,-99.99,0.000000,,2013-05-30 10:42:00,
2013-05-30 06:52:00,66.0,59.0,-100.00,SSE,157,1.0,-999.0,79,-99.99,,,-99.99,0.000000,,2013-05-30 10:52:00,
2013-05-30 07:00:00,65.0,60.0,-100.00,SSE,157,1.0,-999.0,81,-99.99,,,-99.99,19.719999,,2013-05-30 11:00:00,
2013-05-30 07:32:00,65.0,60.0,-100.00,SSE,157,1.0,-999.0,81,-99.99,,,-99.99,19.719999,,2013-05-30 11:32:00,
2013-05-30 07:42:00,65.0,60.0,-100.00,SSE,157,1.0,-999.0,81,-99.99,,,-99.99,19.719999,,2013-05-30 11:42:00,
2013-05-30 07:52:00,65.0,60.0,-100.00,SSE,157,1.0,-999.0,81,-99.99,,,-99.99,19.719999,,2013-05-30 11:52:00,
2013-05-30 08:00:00,69.0,62.0,-100.00,South,180,3.0,-999.0,77,-99.99,,,-99.99,135.720001,,2013-05-30 12:00:00,
2013-05-30 08:32:00,69.0,62.0,-100.00,South,180,3.0,-999.0,77,-99.99,,,-99.99,135.720001,,2013-05-30 12:32:00,
2013-05-30 08:42:00,69.0,62.0,-100.00,South,180,3.0,-999.0,77,-99.99,,,-99.99,135.720001,,2013-05-30 12:42:00,
2013-05-30 08:52:00,69.0,62.0,-100.00,South,180,3.0,-999.0,77,-99.99,,,-99.99,135.720001,,2013-05-30 12:52:00,
2013-05-30 09:00:00,72.0,63.0,-100.00,South,180,5.0,-999.0,73,-99.99,,,-99.99,299.279999,,2013-05-30 13:00:00,
2013-05-30 09:32:00,72.0,63.0,-100.00,South,180,5.0,-999.0,73,-99.99,,,-99.99,299.279999,,2013-05-30 13:32:00,
2013-05-30 09:42:00,72.0,63.0,-100.00,South,180,5.0,-999.0,73,-99.99,,,-99.99,299.279999,,2013-05-30 13:42:00,
2013-05-30 09:52:00,72.0,63.0,-100.00,South,180,5.0,-999.0,73,-99.99,,,-99.99,299.279999,,2013-05-30 13:52:00,
2013-05-30 10:00:00,76.0,65.0,-100.00,South,180,6.0,-999.0,68,-99.99,,,-99.99,464.000000,,2013-05-30 14:00:00,
2013-05-30 10:32:00,76.0,65.0,-100.00,South,180,6.0,-999.0,68,-99.99,,,-99.99,464.000000,,2013-05-30 14:32:00,
2013-05-30 10:42:00,76.0,65.0,-100.00,South,180,6.0,-999.0,68,-99.99,,,-99.99,464.000000,,2013-05-30 14:42:00,
2013-05-30 10:52:00,76.0,65.0,-100.00,South,180,6.0,-999.0,68,-99.99,,,-99.99,464.000000,,2013-05-30 14:52:00,
2013-05-30 11:00:00,79.0,66.0,-100.00,SSW,202,7.0,-999.0,65,-99.99,,,-99.99,603.200012,,2013-05-30 15:00:00,
2013-05-30 11:33:00,79.0,66.0,-100.00,SSW,202,7.0,-999.0,65,-99.99,,,-99.99,603.200012,,2013-05-30 15:33:00,
2013-05-30 11:43:00,79.0,66.0,-100.00,SSW,202,7.0,-999.0,65,-99.99,,,-99.99,603.200012,,2013-05-30 15:43:00,
2013-05-30 11:53:00,79.0,66.0,-100.00,SSW,202,7.0,-999.0,65,-99.99,,,-99.99,603.200012,,2013-05-30 15:53:00,
2013-05-30 12:00:00,80.0,66.0,-100.00,SSW,202,8.0,-999.0,63,-99.99,,,-99.99,495.320007,,2013-05-30 16:00:00,
2013-05-30 12:33:00,80.0,66.0,-100.00,SSW,202,8.0,-999.0,63,-99.99,,,-99.99,495.320007,,2013-05-30 16:33:00,
2013-05-30 12:42:00,80.0,66.0,-100.00,SSW,202,8.0,-999.0,63,-99.99,,,-99.99,495.320007,,2013-05-30 16:42:00,
2013-05-30 12:53:00,80.0,66.0,-100.00,SSW,202,8.0,-999.0,63,-99.99,,,-99.99,495.320007,,2013-05-30 16:53:00,
2013-05-30 13:00:00,80.0,66.0,-100.00,SSW,202,8.0,-999.0,63,-99.99,,,-99.99,539.400024,,2013-05-30 17:00:00,
2013-05-30 13:32:00,80.0,66.0,-100.00,SSW,202,8.0,-999.0,63,-99.99,,,-99.99,539.400024,,2013-05-30 17:32:00,
2013-05-30 13:42:00,80.0,66.0,-100.00,SSW,202,8.0,-999.0,63,-99.99,,,-99.99,539.400024,,2013-05-30 17:42:00,
2013-05-30 13:52:00,80.0,66.0,-100.00,SSW,202,8.0,-999.0,63,-99.99,,,-99.99,539.400024,,2013-05-30 17:52:00,
2013-05-30 14:00:00,81.0,66.0,-100.00,SSW,202,9.0,-999.0,60,-99.99,,,-99.99,603.200012,,2013-05-30 18:00:00,
2013-05-30 14:32:00,81.0,66.0,-100.00,SSW,202,9.0,-999.0,60,-99.99,,,-99.99,603.200012,,2013-05-30 18:32:00,
2013-05-30 14:43:00,81.0,66.0,-100.00,SSW,202,9.0,-999.0,60,-99.99,,,-99.99,603.200012,,2013-05-30 18:43:00,
2013-05-30 14:52:00,81.0,66.0,-100.00,SSW,202,9.0,-999.0,60,-99.99,,,-99.99,603.200012,,2013-05-30 18:52:00,
2013-05-30 15:00:00,82.0,67.0,-100.00,South,180,8.0,-999.0,61,-99.99,,,-99.99,696.000000,,2013-05-30 19:00:00,
2013-05-30 15:32:00,82.0,67.0,-100.00,South,180,8.0,-999.0,61,-99.99,,,-99.99,696.000000,,2013-05-30 19:32:00,
2013-05-30 15:42:00,82.0,67.0,-100.00,South,180,8.0,-999.0,61,-99.99,,,-99.99,696.000000,,2013-05-30 19:42:00,
2013-05-30 15:53:00,82.0,67.0,-100.00,South,180,8.0,-999.0,61,-99.99,,,-99.99,696.000000,,2013-05-30 19:53:00,
2013-05-30 16:00:00,82.0,66.0,-100.00,South,180,9.0,-999.0,59,-99.99,,,-99.99,598.559998,,2013-05-30 20:00:00,
2013-05-30 16:33:00,82.0,66.0,-100.00,South,180,9.0,-999.0,59,-99.99,,,-99.99,598.559998,,2013-05-30 20:33:00,
2013-05-30 16:42:00,82.0,66.0,-100.00,South,180,9.0,-999.0,59,-99.99,,,-99.99,598.559998,,2013-05-30 20:42:00,
2013-05-30 16:52:00,82.0,66.0,-100.00,South,180,9.0,-999.0,59,-99.99,,,-99.99,598.559998,,2013-05-30 20:52:00,
2013-05-30 17:00:00,82.0,66.0,-100.00,South,180,9.0,-999.0,57,-99.99,,,-99.99,570.719971,,2013-05-30 21:00:00,
2013-05-30 17:33:00,82.0,66.0,-100.00,South,180,9.0,-999.0,57,-99.99,,,-99.99,570.719971,,2013-05-30 21:33:00,
2013-05-30 17:43:00,82.0,66.0,-100.00,South,180,9.0,-999.0,57,-99.99,,,-99.99,570.719971,,2013-05-30 21:43:00,
2013-05-30 17:53:00,82.0,66.0,-100.00,South,180,9.0,-999.0,57,-99.99,,,-99.99,570.719971,,2013-05-30 21:53:00,
2013-05-30 18:00:00,82.0,65.0,-100.00,SSW,202,7.0,-999.0,57,-99.99,,,-99.99,361.920013,,2013-05-30 22:00:00,
2013-05-30 18:33:00,82.0,65.0,-100.00,SSW,202,7.0,-999.0,57,-99.99,,,-99.99,361.920013,,2013-05-30 22:33:00,
2013-05-30 18:42:00,82.0,65.0,-100.00,SSW,202,7.0,-999.0,57,-99.99,,,-99.99,361.920013,,2013-05-30 22:42:00,
2013-05-30 18:52:00,82.0,65.0,-100.00,SSW,202,7.0,-999.0,57,-99.99,,,-99.99,361.920013,,2013-05-30 22:52:00,
2013-05-30 19:00:00,81.0,64.0,-100.00,South,180,6.0,-999.0,56,-99.99,,,-99.99,167.039993,,2013-05-30 23:00:00,
2013-05-30 19:32:00,81.0,64.0,-100.00,South,180,6.0,-999.0,56,-99.99,,,-99.99,167.039993,,2013-05-30 23:32:00,
2013-05-30 19:42:00,81.0,64.0,-100.00,South,180,6.0,-999.0,56,-99.99,,,-99.99,167.039993,,2013-05-30 23:42:00,
2013-05-30 19:52:00,81.0,64.0,-100.00,South,180,6.0,-999.0,56,-99.99,,,-99.99,167.039993,,2013-05-30 23:52:00,
2013-05-30 20:00:00,80.0,64.0,-100.00,South,180,5.0,-999.0,59,-99.99,,,-99.99,100.919998,,2013-05-31 00:00:00,
2013-05-30 20:32:00,80.0,64.0,-100.00,South,180,5.0,-999.0,59,-99.99,,,-99.99,100.919998,,2013-05-31 00:32:00,
2013-05-30 20:42:00,80.0,64.0,-100.00,South,180,5.0,-999.0,59,-99.99,,,-99.99,100.919998,,2013-05-31 00:42:00,
2013-05-30 20:52:00,80.0,64.0,-100.00,South,180,5.0,-999.0,59,-99.99,,,-99.99,100.919998,,2013-05-31 00:52:00,
2013-05-30 21:00:00,79.0,64.0,-100.00,South,180,6.0,-999.0,61,-99.99,,,-99.99,42.919998,,2013-05-31 01:00:00,
2013-05-30 21:32:00,79.0,64.0,-100.00,South,180,6.0,-999.0,61,-99.99,,,-99.99,42.919998,,2013-05-31 01:32:00,
2013-05-30 21:42:00,79.0,64.0,-100.00,South,180,6.0,-999.0,61,-99.99,,,-99.99,42.919998,,2013-05-31 01:42:00,
2013-05-30 21:52:00,79.0,64.0,-100.00,South,180,6.0,-999.0,61,-99.99,,,-99.99,42.919998,,2013-05-31 01:52:00,
2013-05-30 22:00:00,76.0,64.0,-100.00,SSE,157,6.0,-999.0,66,-99.99,,,-99.99,0.000000,,2013-05-31 02:00:00,
2013-05-30 22:32:00,76.0,64.0,-100.00,SSE,157,6.0,-999.0,66,-99.99,,,-99.99,0.000000,,2013-05-31 02:32:00,
2013-05-30 22:42:00,76.0,64.0,-100.00,SSE,157,6.0,-999.0,66,-99.99,,,-99.99,0.000000,,2013-05-31 02:42:00,
2013-05-30 22:52:00,76.0,64.0,-100.00,SSE,157,6.0,-999.0,66,-99.99,,,-99.99,0.000000,,2013-05-31 02:52:00,
2013-05-30 23:00:00,76.0,64.0,-100.00,South,180,6.0,-999.0,68,-99.99,,,-99.99,0.000000,,2013-05-31 03:00:00,
2013-05-30 23:33:00,76.0,64.0,-100.00,South,180,6.0,-999.0,68,-99.99,,,-99.99,0.000000,,2013-05-31 03:33:00,
2013-05-30 23:43:00,76.0,64.0,-100.00,South,180,6.0,-999.0,68,-99.99,,,-99.99,0.000000,,2013-05-31 03:43:00,
2013-05-30 23:53:00,76.0,64.0,-100.00,South,180,6.0,-999.0,68,-99.99,,,-99.99,0.000000,,2013-05-31 03:53:00,